Terminal Aerodrome Forecast
Issued by NWS

Current Version | Previous Version | Text Only | Print | Product List | Glossary On
Versions: 1 2 3 4 5 6 7 8 9 10 11 12 13 14
000
FTUS46 KPDT 280500
TAFDLS
TAF
KDLS 280520Z 2806/2906 VRB05KT P6SM VCSH SCT040 OVC070
     FM280900 VRB04KT P6SM -RA BKN040
     FM282000 30010KT P6SM SCT040 BKN060=

USA.gov is the U.S. government's official web portal to all federal, state and local government web resources and services.